sensor_id;sensor_type;location;lat;lon;timestamp;temperature;humidity
34145;HTU21D;69555;53.014;8.886;2023-05-25T00:01:08;12.20;80.36
34145;HTU21D;69555;53.014;8.886;2023-05-25T00:03:33;11.97;81.26
34145;HTU21D;69555;53.014;8.886;2023-05-25T00:06:00;12.11;80.55
34145;HTU21D;69555;53.014;8.886;2023-05-25T00:08:27;12.37;79.51
34145;HTU21D;69555;53.014;8.886;2023-05-25T00:10:52;11.82;81.10
34145;HTU21D;69555;53.014;8.886;2023-05-25T00:13:18;11.74;82.28
34145;HTU21D;69555;53.014;8.886;2023-05-25T00:15:43;12.12;80.51
34145;HTU21D;69555;53.014;8.886;2023-05-25T00:18:09;12.23;80.18
34145;HTU21D;69555;53.014;8.886;2023-05-25T00:20:35;12.20;80.35
34145;HTU21D;69555;53.014;8.886;2023-05-25T00:23:01;11.67;82.81
34145;HTU21D;69555;53.014;8.886;2023-05-25T00:25:27;11.93;82.24
34145;HTU21D;69555;53.014;8.886;2023-05-25T00:27:52;11.91;81.11
34145;HTU21D;69555;53.014;8.886;2023-05-25T00:30:18;12.01;81.39
34145;HTU21D;69555;53.014;8.886;2023-05-25T00:32:43;11.47;83.05
34145;HTU21D;69555;53.014;8.886;2023-05-25T00:35:09;11.39;84.24
34145;HTU21D;69555;53.014;8.886;2023-05-25T00:37:34;11.52;83.05
34145;HTU21D;69555;53.014;8.886;2023-05-25T00:39:59;11.51;83.20
34145;HTU21D;69555;53.014;8.886;2023-05-25T00:42:25;11.45;83.26
34145;HTU21D;69555;53.014;8.886;2023-05-25T00:44:52;11.44;83.55
34145;HTU21D;69555;53.014;8.886;2023-05-25T00:47:18;11.31;84.02
34145;HTU21D;69555;53.014;8.886;2023-05-25T00:49:43;11.71;82.55
34145;HTU21D;69555;53.014;8.886;2023-05-25T00:52:11;11.34;84.03
34145;HTU21D;69555;53.014;8.886;2023-05-25T00:54:37;11.44;83.29
34145;HTU21D;69555;53.014;8.886;2023-05-25T00:57:03;11.66;82.14
34145;HTU21D;69555;53.014;8.886;2023-05-25T00:59:32;11.75;81.91
34145;HTU21D;69555;53.014;8.886;2023-05-25T01:02:07;11.64;81.71
34145;HTU21D;69555;53.014;8.886;2023-05-25T01:04:35;11.99;80.45
34145;HTU21D;69555;53.014;8.886;2023-05-25T01:07:03;12.13;80.21
34145;HTU21D;69555;53.014;8.886;2023-05-25T01:09:29;11.98;80.38
34145;HTU21D;69555;53.014;8.886;2023-05-25T01:11:59;12.14;79.48
34145;HTU21D;69555;53.014;8.886;2023-05-25T01:14:26;12.26;78.82
34145;HTU21D;69555;53.014;8.886;2023-05-25T01:16:53;12.51;77.92
34145;HTU21D;69555;53.014;8.886;2023-05-25T01:19:20;12.44;78.47
34145;HTU21D;69555;53.014;8.886;2023-05-25T01:22:07;12.32;79.66
34145;HTU21D;69555;53.014;8.886;2023-05-25T01:24:37;12.52;78.10
34145;HTU21D;69555;53.014;8.886;2023-05-25T01:27:14;12.62;77.82
34145;HTU21D;69555;53.014;8.886;2023-05-25T01:29:42;12.61;78.31
34145;HTU21D;69555;53.014;8.886;2023-05-25T01:32:08;12.62;78.63
34145;HTU21D;69555;53.014;8.886;2023-05-25T01:34:35;12.66;78.53
34145;HTU21D;69555;53.014;8.886;2023-05-25T01:37:02;12.77;77.56
34145;HTU21D;69555;53.014;8.886;2023-05-25T01:39:27;12.73;78.25
34145;HTU21D;69555;53.014;8.886;2023-05-25T01:41:53;12.64;78.76
34145;HTU21D;69555;53.014;8.886;2023-05-25T01:44:18;12.55;79.33
34145;HTU21D;69555;53.014;8.886;2023-05-25T01:46:48;12.27;79.94
34145;HTU21D;69555;53.014;8.886;2023-05-25T01:49:52;12.36;79.75
34145;HTU21D;69555;53.014;8.886;2023-05-25T01:52:27;11.86;82.33
34145;HTU21D;69555;53.014;8.886;2023-05-25T01:55:05;11.94;81.84
34145;HTU21D;69555;53.014;8.886;2023-05-25T01:57:35;11.51;83.70
34145;HTU21D;69555;53.014;8.886;2023-05-25T02:00:02;11.30;84.17
34145;HTU21D;69555;53.014;8.886;2023-05-25T02:02:30;11.76;82.68
34145;HTU21D;69555;53.014;8.886;2023-05-25T02:04:57;12.07;81.75
34145;HTU21D;69555;53.014;8.886;2023-05-25T02:07:23;12.21;81.17
34145;HTU21D;69555;53.014;8.886;2023-05-25T02:09:48;12.47;80.20
34145;HTU21D;69555;53.014;8.886;2023-05-25T02:12:15;12.61;79.68
34145;HTU21D;69555;53.014;8.886;2023-05-25T02:14:40;12.53;79.86
34145;HTU21D;69555;53.014;8.886;2023-05-25T02:17:06;12.60;79.59
34145;HTU21D;69555;53.014;8.886;2023-05-25T02:19:31;12.42;80.40
34145;HTU21D;69555;53.014;8.886;2023-05-25T02:21:57;12.51;79.74
34145;HTU21D;69555;53.014;8.886;2023-05-25T02:24:23;12.41;79.24
34145;HTU21D;69555;53.014;8.886;2023-05-25T02:26:49;12.23;80.52
34145;HTU21D;69555;53.014;8.886;2023-05-25T02:29:15;12.26;80.98
34145;HTU21D;69555;53.014;8.886;2023-05-25T02:31:41;12.53;79.85
34145;HTU21D;69555;53.014;8.886;2023-05-25T02:34:06;12.40;80.36
34145;HTU21D;69555;53.014;8.886;2023-05-25T02:36:32;12.27;80.37
34145;HTU21D;69555;53.014;8.886;2023-05-25T02:38:59;12.30;80.75
34145;HTU21D;69555;53.014;8.886;2023-05-25T02:41:24;11.89;82.46
34145;HTU21D;69555;53.014;8.886;2023-05-25T02:43:50;12.05;81.57
34145;HTU21D;69555;53.014;8.886;2023-05-25T02:46:16;12.04;81.66
34145;HTU21D;69555;53.014;8.886;2023-05-25T02:48:41;12.30;80.62
34145;HTU21D;69555;53.014;8.886;2023-05-25T02:51:07;11.99;82.10
34145;HTU21D;69555;53.014;8.886;2023-05-25T02:53:33;12.34;80.70
34145;HTU21D;69555;53.014;8.886;2023-05-25T02:55:58;12.01;82.57
34145;HTU21D;69555;53.014;8.886;2023-05-25T02:58:24;12.04;82.08
34145;HTU21D;69555;53.014;8.886;2023-05-25T03:00:50;12.07;82.48
34145;HTU21D;69555;53.014;8.886;2023-05-25T03:03:15;12.04;82.42
34145;HTU21D;69555;53.014;8.886;2023-05-25T03:05:41;11.69;83.86
34145;HTU21D;69555;53.014;8.886;2023-05-25T03:08:06;11.88;83.43
34145;HTU21D;69555;53.014;8.886;2023-05-25T03:10:32;12.06;82.68
34145;HTU21D;69555;53.014;8.886;2023-05-25T03:12:57;12.19;82.44
34145;HTU21D;69555;53.014;8.886;2023-05-25T03:15:22;11.96;83.55
34145;HTU21D;69555;53.014;8.886;2023-05-25T03:17:48;12.23;82.15
34145;HTU21D;69555;53.014;8.886;2023-05-25T03:20:15;12.34;82.00
34145;HTU21D;69555;53.014;8.886;2023-05-25T03:22:41;12.34;81.75
34145;HTU21D;69555;53.014;8.886;2023-05-25T03:25:08;11.96;83.37
34145;HTU21D;69555;53.014;8.886;2023-05-25T03:27:36;12.06;83.03
34145;HTU21D;69555;53.014;8.886;2023-05-25T03:30:02;12.14;82.85
34145;HTU21D;69555;53.014;8.886;2023-05-25T03:32:28;12.28;82.04
34145;HTU21D;69555;53.014;8.886;2023-05-25T03:34:53;11.99;83.26
34145;HTU21D;69555;53.014;8.886;2023-05-25T03:37:19;11.71;84.96
34145;HTU21D;69555;53.014;8.886;2023-05-25T03:39:44;11.93;84.26
34145;HTU21D;69555;53.014;8.886;2023-05-25T03:42:09;11.89;84.55
34145;HTU21D;69555;53.014;8.886;2023-05-25T03:44:35;11.45;86.46
34145;HTU21D;69555;53.014;8.886;2023-05-25T03:47:00;11.78;84.91
34145;HTU21D;69555;53.014;8.886;2023-05-25T03:49:26;11.94;84.23
34145;HTU21D;69555;53.014;8.886;2023-05-25T03:51:52;11.63;85.88
34145;HTU21D;69555;53.014;8.886;2023-05-25T03:54:17;11.59;86.45
34145;HTU21D;69555;53.014;8.886;2023-05-25T03:56:42;11.72;86.05
34145;HTU21D;69555;53.014;8.886;2023-05-25T03:59:08;11.31;87.77
34145;HTU21D;69555;53.014;8.886;2023-05-25T04:01:33;11.30;88.18
34145;HTU21D;69555;53.014;8.886;2023-05-25T04:04:02;11.49;87.00
34145;HTU21D;69555;53.014;8.886;2023-05-25T04:06:27;11.11;89.57
34145;HTU21D;69555;53.014;8.886;2023-05-25T04:08:54;11.22;88.79
34145;HTU21D;69555;53.014;8.886;2023-05-25T04:11:19;11.40;88.15
34145;HTU21D;69555;53.014;8.886;2023-05-25T04:13:46;11.49;87.98
34145;HTU21D;69555;53.014;8.886;2023-05-25T04:16:12;11.33;88.75
34145;HTU21D;69555;53.014;8.886;2023-05-25T04:18:37;11.67;87.41
34145;HTU21D;69555;53.014;8.886;2023-05-25T04:21:03;11.66;87.67
34145;HTU21D;69555;53.014;8.886;2023-05-25T04:23:28;11.87;86.44
34145;HTU21D;69555;53.014;8.886;2023-05-25T04:25:54;12.05;85.70
34145;HTU21D;69555;53.014;8.886;2023-05-25T04:28:19;11.96;85.87
34145;HTU21D;69555;53.014;8.886;2023-05-25T04:30:45;11.74;86.80
34145;HTU21D;69555;53.014;8.886;2023-05-25T04:33:12;11.56;88.12
34145;HTU21D;69555;53.014;8.886;2023-05-25T04:35:37;11.61;87.42
34145;HTU21D;69555;53.014;8.886;2023-05-25T04:38:05;11.78;86.83
34145;HTU21D;69555;53.014;8.886;2023-05-25T04:40:31;11.34;89.07
34145;HTU21D;69555;53.014;8.886;2023-05-25T04:43:00;11.26;88.88
34145;HTU21D;69555;53.014;8.886;2023-05-25T04:45:26;11.48;88.28
34145;HTU21D;69555;53.014;8.886;2023-05-25T04:47:53;11.84;87.22
34145;HTU21D;69555;53.014;8.886;2023-05-25T04:50:20;12.11;86.12
34145;HTU21D;69555;53.014;8.886;2023-05-25T04:52:46;12.55;83.94
34145;HTU21D;69555;53.014;8.886;2023-05-25T04:55:11;12.43;84.72
34145;HTU21D;69555;53.014;8.886;2023-05-25T04:57:37;12.47;83.66
34145;HTU21D;69555;53.014;8.886;2023-05-25T05:00:02;12.60;83.27
34145;HTU21D;69555;53.014;8.886;2023-05-25T05:02:30;12.82;81.72
34145;HTU21D;69555;53.014;8.886;2023-05-25T05:04:55;13.07;81.14
34145;HTU21D;69555;53.014;8.886;2023-05-25T05:07:21;13.47;78.82
34145;HTU21D;69555;53.014;8.886;2023-05-25T05:09:47;13.47;79.62
34145;HTU21D;69555;53.014;8.886;2023-05-25T05:12:13;13.68;78.94
34145;HTU21D;69555;53.014;8.886;2023-05-25T05:14:39;13.95;77.21
34145;HTU21D;69555;53.014;8.886;2023-05-25T05:17:04;13.97;77.72
34145;HTU21D;69555;53.014;8.886;2023-05-25T05:19:30;14.05;76.37
34145;HTU21D;69555;53.014;8.886;2023-05-25T05:21:57;14.03;76.38
34145;HTU21D;69555;53.014;8.886;2023-05-25T05:24:22;13.92;77.06
34145;HTU21D;69555;53.014;8.886;2023-05-25T05:26:48;13.67;79.07
34145;HTU21D;69555;53.014;8.886;2023-05-25T05:29:14;14.29;76.50
34145;HTU21D;69555;53.014;8.886;2023-05-25T05:31:41;14.21;75.63
34145;HTU21D;69555;53.014;8.886;2023-05-25T05:34:06;13.52;78.92
34145;HTU21D;69555;53.014;8.886;2023-05-25T05:36:32;13.47;79.49
34145;HTU21D;69555;53.014;8.886;2023-05-25T05:38:58;13.68;78.75
34145;HTU21D;69555;53.014;8.886;2023-05-25T05:41:23;13.99;77.22
34145;HTU21D;69555;53.014;8.886;2023-05-25T05:43:48;14.24;76.92
34145;HTU21D;69555;53.014;8.886;2023-05-25T05:46:14;14.35;76.18
34145;HTU21D;69555;53.014;8.886;2023-05-25T05:48:39;13.81;78.36
34145;HTU21D;69555;53.014;8.886;2023-05-25T05:51:05;14.17;78.54
34145;HTU21D;69555;53.014;8.886;2023-05-25T05:53:31;14.23;76.76
34145;HTU21D;69555;53.014;8.886;2023-05-25T05:55:59;13.95;77.49
34145;HTU21D;69555;53.014;8.886;2023-05-25T05:58:25;14.20;77.18
34145;HTU21D;69555;53.014;8.886;2023-05-25T06:00:51;13.74;77.35
34145;HTU21D;69555;53.014;8.886;2023-05-25T06:03:17;13.58;77.93
34145;HTU21D;69555;53.014;8.886;2023-05-25T06:05:43;14.08;77.15
34145;HTU21D;69555;53.014;8.886;2023-05-25T06:08:08;14.00;76.57
34145;HTU21D;69555;53.014;8.886;2023-05-25T06:10:34;14.00;78.08
34145;HTU21D;69555;53.014;8.886;2023-05-25T06:13:00;13.78;79.46
34145;HTU21D;69555;53.014;8.886;2023-05-25T06:15:25;13.39;79.69
34145;HTU21D;69555;53.014;8.886;2023-05-25T06:17:51;13.53;79.24
34145;HTU21D;69555;53.014;8.886;2023-05-25T06:20:16;13.67;79.07
34145;HTU21D;69555;53.014;8.886;2023-05-25T06:22:41;13.27;80.21
34145;HTU21D;69555;53.014;8.886;2023-05-25T06:25:07;13.30;79.43
34145;HTU21D;69555;53.014;8.886;2023-05-25T06:27:34;13.61;78.65
34145;HTU21D;69555;53.014;8.886;2023-05-25T06:30:00;13.16;79.33
34145;HTU21D;69555;53.014;8.886;2023-05-25T06:32:25;13.38;79.85
34145;HTU21D;69555;53.014;8.886;2023-05-25T06:34:51;13.24;80.22
34145;HTU21D;69555;53.014;8.886;2023-05-25T06:37:16;13.31;80.69
34145;HTU21D;69555;53.014;8.886;2023-05-25T06:39:41;13.86;77.66
34145;HTU21D;69555;53.014;8.886;2023-05-25T06:42:08;13.94;76.79
34145;HTU21D;69555;53.014;8.886;2023-05-25T06:44:34;13.84;77.66
34145;HTU21D;69555;53.014;8.886;2023-05-25T06:46:59;14.23;75.83
34145;HTU21D;69555;53.014;8.886;2023-05-25T06:49:25;13.80;76.88
34145;HTU21D;69555;53.014;8.886;2023-05-25T06:51:51;13.99;77.15
34145;HTU21D;69555;53.014;8.886;2023-05-25T06:54:16;14.37;75.79
34145;HTU21D;69555;53.014;8.886;2023-05-25T06:56:43;14.38;75.08
34145;HTU21D;69555;53.014;8.886;2023-05-25T06:59:09;14.21;75.37
34145;HTU21D;69555;53.014;8.886;2023-05-25T07:01:35;14.35;75.07
34145;HTU21D;69555;53.014;8.886;2023-05-25T07:04:00;14.04;76.07
34145;HTU21D;69555;53.014;8.886;2023-05-25T07:06:26;14.33;75.25
34145;HTU21D;69555;53.014;8.886;2023-05-25T07:08:51;13.85;76.52
34145;HTU21D;69555;53.014;8.886;2023-05-25T07:11:17;13.85;75.75
34145;HTU21D;69555;53.014;8.886;2023-05-25T07:13:45;14.07;75.93
34145;HTU21D;69555;53.014;8.886;2023-05-25T07:16:10;13.62;77.16
34145;HTU21D;69555;53.014;8.886;2023-05-25T07:18:38;13.68;76.79
34145;HTU21D;69555;53.014;8.886;2023-05-25T07:21:05;13.47;78.31
34145;HTU21D;69555;53.014;8.886;2023-05-25T07:23:31;13.56;77.72
34145;HTU21D;69555;53.014;8.886;2023-05-25T07:25:56;13.40;77.93
34145;HTU21D;69555;53.014;8.886;2023-05-25T07:28:22;13.35;77.71
34145;HTU21D;69555;53.014;8.886;2023-05-25T07:30:47;13.66;77.52
34145;HTU21D;69555;53.014;8.886;2023-05-25T07:33:12;13.45;77.32
34145;HTU21D;69555;53.014;8.886;2023-05-25T07:35:38;13.75;77.95
34145;HTU21D;69555;53.014;8.886;2023-05-25T07:38:03;13.88;78.55
34145;HTU21D;69555;53.014;8.886;2023-05-25T07:40:29;14.70;73.21
34145;HTU21D;69555;53.014;8.886;2023-05-25T07:42:55;14.57;75.72
34145;HTU21D;69555;53.014;8.886;2023-05-25T07:45:21;15.32;71.10
34145;HTU21D;69555;53.014;8.886;2023-05-25T07:47:47;15.71;69.94
34145;HTU21D;69555;53.014;8.886;2023-05-25T07:50:13;15.56;69.68
34145;HTU21D;69555;53.014;8.886;2023-05-25T07:52:39;15.45;72.79
34145;HTU21D;69555;53.014;8.886;2023-05-25T07:55:05;14.84;71.87
34145;HTU21D;69555;53.014;8.886;2023-05-25T07:57:32;14.59;72.67
34145;HTU21D;69555;53.014;8.886;2023-05-25T07:59:57;15.29;72.32
34145;HTU21D;69555;53.014;8.886;2023-05-25T08:02:23;15.53;71.07
34145;HTU21D;69555;53.014;8.886;2023-05-25T08:04:48;16.00;68.87
34145;HTU21D;69555;53.014;8.886;2023-05-25T08:07:13;15.72;68.39
34145;HTU21D;69555;53.014;8.886;2023-05-25T08:09:39;16.07;68.43
34145;HTU21D;69555;53.014;8.886;2023-05-25T08:12:04;16.03;67.81
34145;HTU21D;69555;53.014;8.886;2023-05-25T08:14:30;16.27;66.06
34145;HTU21D;69555;53.014;8.886;2023-05-25T08:16:55;15.41;68.75
34145;HTU21D;69555;53.014;8.886;2023-05-25T08:19:21;15.37;68.63
34145;HTU21D;69555;53.014;8.886;2023-05-25T08:21:46;15.04;68.16
34145;HTU21D;69555;53.014;8.886;2023-05-25T08:24:11;15.01;69.87
34145;HTU21D;69555;53.014;8.886;2023-05-25T08:26:37;15.24;69.45
34145;HTU21D;69555;53.014;8.886;2023-05-25T08:29:04;15.54;66.81
34145;HTU21D;69555;53.014;8.886;2023-05-25T08:31:31;15.23;67.93
34145;HTU21D;69555;53.014;8.886;2023-05-25T08:33:57;15.76;67.07
34145;HTU21D;69555;53.014;8.886;2023-05-25T08:36:23;16.00;64.76
34145;HTU21D;69555;53.014;8.886;2023-05-25T08:38:49;16.35;64.85
34145;HTU21D;69555;53.014;8.886;2023-05-25T08:41:14;16.66;63.31
34145;HTU21D;69555;53.014;8.886;2023-05-25T08:43:41;16.62;62.15
34145;HTU21D;69555;53.014;8.886;2023-05-25T08:46:07;16.25;60.01
34145;HTU21D;69555;53.014;8.886;2023-05-25T08:48:34;18.18;58.00
34145;HTU21D;69555;53.014;8.886;2023-05-25T08:51:06;17.67;58.36
34145;HTU21D;69555;53.014;8.886;2023-05-25T08:53:34;18.59;55.23
34145;HTU21D;69555;53.014;8.886;2023-05-25T08:56:13;17.92;56.75
34145;HTU21D;69555;53.014;8.886;2023-05-25T08:58:45;17.29;57.98
34145;HTU21D;69555;53.014;8.886;2023-05-25T09:01:14;16.79;60.58
34145;HTU21D;69555;53.014;8.886;2023-05-25T09:03:42;16.43;63.62
34145;HTU21D;69555;53.014;8.886;2023-05-25T09:06:08;16.47;62.07
34145;HTU21D;69555;53.014;8.886;2023-05-25T09:08:34;16.55;61.60
34145;HTU21D;69555;53.014;8.886;2023-05-25T09:11:01;16.71;59.38
34145;HTU21D;69555;53.014;8.886;2023-05-25T09:13:28;17.19;60.09
34145;HTU21D;69555;53.014;8.886;2023-05-25T09:15:54;18.38;57.25
34145;HTU21D;69555;53.014;8.886;2023-05-25T09:18:19;18.11;59.54
34145;HTU21D;69555;53.014;8.886;2023-05-25T09:20:45;18.61;55.42
34145;HTU21D;69555;53.014;8.886;2023-05-25T09:23:11;19.22;54.59
34145;HTU21D;69555;53.014;8.886;2023-05-25T09:25:37;18.87;56.07
34145;HTU21D;69555;53.014;8.886;2023-05-25T09:28:07;18.61;56.68
34145;HTU21D;69555;53.014;8.886;2023-05-25T09:30:32;18.69;56.90
34145;HTU21D;69555;53.014;8.886;2023-05-25T09:33:12;18.44;55.81
34145;HTU21D;69555;53.014;8.886;2023-05-25T09:35:38;17.88;58.22
34145;HTU21D;69555;53.014;8.886;2023-05-25T09:38:05;17.66;57.35
34145;HTU21D;69555;53.014;8.886;2023-05-25T09:40:34;17.31;59.42
34145;HTU21D;69555;53.014;8.886;2023-05-25T09:43:01;16.66;60.03
34145;HTU21D;69555;53.014;8.886;2023-05-25T09:45:27;16.98;60.82
34145;HTU21D;69555;53.014;8.886;2023-05-25T09:47:56;16.90;59.68
34145;HTU21D;69555;53.014;8.886;2023-05-25T09:50:22;17.07;59.09
34145;HTU21D;69555;53.014;8.886;2023-05-25T09:52:47;16.42;59.38
34145;HTU21D;69555;53.014;8.886;2023-05-25T09:55:14;16.45;62.34
34145;HTU21D;69555;53.014;8.886;2023-05-25T09:57:40;16.50;61.22
34145;HTU21D;69555;53.014;8.886;2023-05-25T10:00:06;16.56;61.31
34145;HTU21D;69555;53.014;8.886;2023-05-25T10:02:32;17.03;59.32
34145;HTU21D;69555;53.014;8.886;2023-05-25T10:04:58;16.96;59.91
34145;HTU21D;69555;53.014;8.886;2023-05-25T10:07:24;17.45;58.45
34145;HTU21D;69555;53.014;8.886;2023-05-25T10:09:51;17.78;59.76
34145;HTU21D;69555;53.014;8.886;2023-05-25T10:12:23;17.75;58.58
34145;HTU21D;69555;53.014;8.886;2023-05-25T10:14:49;16.63;62.58
34145;HTU21D;69555;53.014;8.886;2023-05-25T10:17:20;17.13;59.22
34145;HTU21D;69555;53.014;8.886;2023-05-25T10:19:59;17.33;56.26
34145;HTU21D;69555;53.014;8.886;2023-05-25T10:22:44;18.35;55.71
34145;HTU21D;69555;53.014;8.886;2023-05-25T10:25:31;17.87;56.18
34145;HTU21D;69555;53.014;8.886;2023-05-25T10:30:52;17.30;59.79
34145;HTU21D;69555;53.014;8.886;2023-05-25T10:33:19;17.47;57.94
34145;HTU21D;69555;53.014;8.886;2023-05-25T10:35:45;17.96;57.93
34145;HTU21D;69555;53.014;8.886;2023-05-25T10:38:11;18.63;57.31
34145;HTU21D;69555;53.014;8.886;2023-05-25T10:40:38;17.75;56.04
34145;HTU21D;69555;53.014;8.886;2023-05-25T10:43:04;17.52;57.06
34145;HTU21D;69555;53.014;8.886;2023-05-25T10:45:30;18.20;58.28
34145;HTU21D;69555;53.014;8.886;2023-05-25T10:47:56;18.84;60.45
34145;HTU21D;69555;53.014;8.886;2023-05-25T10:50:23;19.08;52.56
34145;HTU21D;69555;53.014;8.886;2023-05-25T10:55:26;18.68;52.94
34145;HTU21D;69555;53.014;8.886;2023-05-25T10:58:12;18.25;58.06
34145;HTU21D;69555;53.014;8.886;2023-05-25T11:00:39;18.44;60.37
34145;HTU21D;69555;53.014;8.886;2023-05-25T11:03:05;18.68;54.48
34145;HTU21D;69555;53.014;8.886;2023-05-25T11:05:32;18.33;55.33
34145;HTU21D;69555;53.014;8.886;2023-05-25T11:08:08;18.02;53.24
34145;HTU21D;69555;53.014;8.886;2023-05-25T11:10:43;17.26;56.48
34145;HTU21D;69555;53.014;8.886;2023-05-25T11:13:23;17.41;58.02
34145;HTU21D;69555;53.014;8.886;2023-05-25T11:18:43;18.49;55.58
34145;HTU21D;69555;53.014;8.886;2023-05-25T11:21:20;17.59;56.42
34145;HTU21D;69555;53.014;8.886;2023-05-25T11:26:25;18.23;60.42
34145;HTU21D;69555;53.014;8.886;2023-05-25T11:28:52;18.67;56.76
34145;HTU21D;69555;53.014;8.886;2023-05-25T11:31:28;18.29;55.12
34145;HTU21D;69555;53.014;8.886;2023-05-25T11:34:01;17.82;55.11
34145;HTU21D;69555;53.014;8.886;2023-05-25T11:36:29;18.15;57.48
34145;HTU21D;69555;53.014;8.886;2023-05-25T11:38:59;18.48;57.19
34145;HTU21D;69555;53.014;8.886;2023-05-25T11:41:26;18.44;55.33
34145;HTU21D;69555;53.014;8.886;2023-05-25T11:43:54;18.33;54.66
34145;HTU21D;69555;53.014;8.886;2023-05-25T11:46:21;17.68;56.34
34145;HTU21D;69555;53.014;8.886;2023-05-25T11:48:53;17.61;56.07
34145;HTU21D;69555;53.014;8.886;2023-05-25T11:51:24;18.12;58.82
34145;HTU21D;69555;53.014;8.886;2023-05-25T11:53:50;18.52;54.67
34145;HTU21D;69555;53.014;8.886;2023-05-25T11:56:17;17.88;56.56
34145;HTU21D;69555;53.014;8.886;2023-05-25T11:58:44;17.74;56.93
34145;HTU21D;69555;53.014;8.886;2023-05-25T12:01:21;17.46;55.12
34145;HTU21D;69555;53.014;8.886;2023-05-25T12:03:49;17.46;58.46
34145;HTU21D;69555;53.014;8.886;2023-05-25T12:06:24;17.44;54.10
34145;HTU21D;69555;53.014;8.886;2023-05-25T12:08:56;17.41;55.20
34145;HTU21D;69555;53.014;8.886;2023-05-25T12:11:35;17.52;58.17
34145;HTU21D;69555;53.014;8.886;2023-05-25T12:14:09;17.95;59.22
34145;HTU21D;69555;53.014;8.886;2023-05-25T12:16:35;18.06;55.65
34145;HTU21D;69555;53.014;8.886;2023-05-25T12:19:05;18.49;53.29
34145;HTU21D;69555;53.014;8.886;2023-05-25T12:21:31;18.83;53.23
34145;HTU21D;69555;53.014;8.886;2023-05-25T12:23:57;17.67;54.35
34145;HTU21D;69555;53.014;8.886;2023-05-25T12:26:23;17.94;57.21
34145;HTU21D;69555;53.014;8.886;2023-05-25T12:29:03;17.66;57.26
34145;HTU21D;69555;53.014;8.886;2023-05-25T12:31:32;17.84;58.03
34145;HTU21D;69555;53.014;8.886;2023-05-25T12:34:17;17.41;57.89
34145;HTU21D;69555;53.014;8.886;2023-05-25T12:36:53;17.24;58.90
34145;HTU21D;69555;53.014;8.886;2023-05-25T12:41:59;18.38;57.42
34145;HTU21D;69555;53.014;8.886;2023-05-25T12:44:31;18.34;58.10
34145;HTU21D;69555;53.014;8.886;2023-05-25T12:47:10;18.10;53.96
34145;HTU21D;69555;53.014;8.886;2023-05-25T12:49:36;18.40;54.38
34145;HTU21D;69555;53.014;8.886;2023-05-25T12:52:03;18.13;53.78
34145;HTU21D;69555;53.014;8.886;2023-05-25T12:57:12;17.90;55.54
34145;HTU21D;69555;53.014;8.886;2023-05-25T12:59:39;17.87;54.94
34145;HTU21D;69555;53.014;8.886;2023-05-25T13:02:05;17.51;58.95
34145;HTU21D;69555;53.014;8.886;2023-05-25T13:04:33;17.56;56.45
34145;HTU21D;69555;53.014;8.886;2023-05-25T13:06:58;17.62;58.41
34145;HTU21D;69555;53.014;8.886;2023-05-25T13:09:24;17.74;60.25
34145;HTU21D;69555;53.014;8.886;2023-05-25T13:11:51;18.19;58.31
34145;HTU21D;69555;53.014;8.886;2023-05-25T13:14:19;17.93;56.65
34145;HTU21D;69555;53.014;8.886;2023-05-25T13:16:44;17.56;54.94
34145;HTU21D;69555;53.014;8.886;2023-05-25T13:19:10;17.80;55.65
34145;HTU21D;69555;53.014;8.886;2023-05-25T13:21:35;18.03;57.86
34145;HTU21D;69555;53.014;8.886;2023-05-25T13:24:01;18.05;57.75
34145;HTU21D;69555;53.014;8.886;2023-05-25T13:26:26;17.84;57.85
34145;HTU21D;69555;53.014;8.886;2023-05-25T13:28:51;18.12;56.59
34145;HTU21D;69555;53.014;8.886;2023-05-25T13:31:17;17.89;55.61
34145;HTU21D;69555;53.014;8.886;2023-05-25T13:33:42;17.83;54.55
34145;HTU21D;69555;53.014;8.886;2023-05-25T13:36:08;17.96;60.99
34145;HTU21D;69555;53.014;8.886;2023-05-25T13:38:34;17.99;57.06
34145;HTU21D;69555;53.014;8.886;2023-05-25T13:41:00;17.94;56.16
34145;HTU21D;69555;53.014;8.886;2023-05-25T13:43:25;17.93;60.58
34145;HTU21D;69555;53.014;8.886;2023-05-25T13:45:51;17.26;59.25
34145;HTU21D;69555;53.014;8.886;2023-05-25T13:48:16;17.08;56.30
34145;HTU21D;69555;53.014;8.886;2023-05-25T13:50:42;17.11;54.39
34145;HTU21D;69555;53.014;8.886;2023-05-25T13:53:09;17.54;59.95
34145;HTU21D;69555;53.014;8.886;2023-05-25T13:55:35;17.45;58.36
34145;HTU21D;69555;53.014;8.886;2023-05-25T13:58:00;17.47;55.61
34145;HTU21D;69555;53.014;8.886;2023-05-25T14:00:25;17.76;57.17
34145;HTU21D;69555;53.014;8.886;2023-05-25T14:02:51;17.89;59.05
34145;HTU21D;69555;53.014;8.886;2023-05-25T14:05:17;17.88;57.01
34145;HTU21D;69555;53.014;8.886;2023-05-25T14:07:44;17.74;55.20
34145;HTU21D;69555;53.014;8.886;2023-05-25T14:10:09;17.70;55.62
34145;HTU21D;69555;53.014;8.886;2023-05-25T14:12:35;17.32;55.80
34145;HTU21D;69555;53.014;8.886;2023-05-25T14:15:00;17.07;58.16
34145;HTU21D;69555;53.014;8.886;2023-05-25T14:17:26;17.53;57.16
34145;HTU21D;69555;53.014;8.886;2023-05-25T14:19:51;17.40;54.85
34145;HTU21D;69555;53.014;8.886;2023-05-25T14:22:17;17.44;57.03
34145;HTU21D;69555;53.014;8.886;2023-05-25T14:24:42;17.81;58.53
34145;HTU21D;69555;53.014;8.886;2023-05-25T14:27:08;17.45;55.85
34145;HTU21D;69555;53.014;8.886;2023-05-25T14:29:33;17.37;59.17
34145;HTU21D;69555;53.014;8.886;2023-05-25T14:31:59;17.78;57.13
34145;HTU21D;69555;53.014;8.886;2023-05-25T14:34:24;17.56;58.40
34145;HTU21D;69555;53.014;8.886;2023-05-25T14:36:50;17.54;59.06
34145;HTU21D;69555;53.014;8.886;2023-05-25T14:39:15;17.60;58.99
34145;HTU21D;69555;53.014;8.886;2023-05-25T14:41:40;17.00;56.87
34145;HTU21D;69555;53.014;8.886;2023-05-25T14:44:06;17.10;57.94
34145;HTU21D;69555;53.014;8.886;2023-05-25T14:46:34;17.32;58.52
34145;HTU21D;69555;53.014;8.886;2023-05-25T14:49:00;16.81;58.74
34145;HTU21D;69555;53.014;8.886;2023-05-25T14:51:25;16.90;55.51
34145;HTU21D;69555;53.014;8.886;2023-05-25T14:53:51;17.28;57.64
34145;HTU21D;69555;53.014;8.886;2023-05-25T14:56:18;17.10;57.43
34145;HTU21D;69555;53.014;8.886;2023-05-25T14:58:44;17.20;56.02
34145;HTU21D;69555;53.014;8.886;2023-05-25T15:01:10;17.13;57.70
34145;HTU21D;69555;53.014;8.886;2023-05-25T15:03:35;17.16;55.74
34145;HTU21D;69555;53.014;8.886;2023-05-25T15:06:01;16.90;57.00
34145;HTU21D;69555;53.014;8.886;2023-05-25T15:08:26;17.17;60.22
34145;HTU21D;69555;53.014;8.886;2023-05-25T15:10:52;17.23;60.05
34145;HTU21D;69555;53.014;8.886;2023-05-25T15:13:17;17.10;58.20
34145;HTU21D;69555;53.014;8.886;2023-05-25T15:15:47;17.10;56.93
34145;HTU21D;69555;53.014;8.886;2023-05-25T15:18:12;16.78;58.03
34145;HTU21D;69555;53.014;8.886;2023-05-25T15:20:37;16.81;58.82
34145;HTU21D;69555;53.014;8.886;2023-05-25T15:23:03;16.88;60.99
34145;HTU21D;69555;53.014;8.886;2023-05-25T15:25:28;17.05;59.92
34145;HTU21D;69555;53.014;8.886;2023-05-25T15:27:54;16.44;59.12
34145;HTU21D;69555;53.014;8.886;2023-05-25T15:30:19;16.44;60.22